Terminal Aerodrome Forecast
Issued by NWS Sterling, VA

Home | Current Version | Previous Version | Text Only | Print | Product List | Glossary On
Versions: 1 2 3 4 5 6 7 8 9 10 11 12 13 14 15 16 17 18 19 20 21 22
000
FTUS41 KLWX 181732
TAFBWI
TAF
KBWI 181732Z 1818/1924 16006KT P6SM FEW250
     FM190200 VRB03KT P6SM SKC
     FM190800 04012G18KT P6SM SKC
     FM191300 09013G20KT P6SM FEW250
     FM191800 11015G22KT P6SM SCT150
     FM192100 11014KT P6SM BKN080
     FM192300 11014KT 6SM -RA BKN050=

USA.gov is the U.S. government's official web portal to all federal, state and local government web resources and services.